17 augustus 2022

Tijd Code Weer Temp. Zicht Plafond Wind METAR/SPECI
09:30
V
20 °C 10 km+ 10.000 ft 190° 190° 7 kt METAR LFBC 170730Z AUTO 19007KT 160V220 9999 SCT009/// BKN100/// OVC150/// //////CB 20/19 Q1010 TEMPO 3200 SHRA
09:00
I
18 °C 10 km+ 800 ft 140° 140° 4 kt METAR LFBC 170700Z AUTO 14004KT 9999 BKN008/// BKN015/// OVC160/// //////CB 18/17 Q1010 TEMPO 3200 SHRA BKN020CB
08:30
I
17 °C 10 km+ 800 ft 100° 100° 4 kt METAR LFBC 170630Z AUTO 10004KT 9999 BKN008/// OVC013/// //////CB 17/16 Q1010 TEMPO 3200 SHRA BKN020CB BECMG 19012KT
08:00
I
17 °C 10 km+ 800 ft 090° 090° 7 kt METAR LFBC 170600Z AUTO 09007KT 080V140 9999 BKN008/// BKN012/// BKN028/// ///CB 17/16 Q1010 TEMPO 3200 SHRA BKN020CB
07:30
I
17 °C 4,8 km 900 ft 070° 070° 5 kt METAR LFBC 170530Z AUTO 07005KT 4800 -RA BR BKN009/// BKN025/// BKN056/// //////CB 17/16 Q1010 TEMPO TSRA BKN020CB BECMG 19012KT
07:00
M
18 °C 10 km+ 2.700 ft 200° 200° 13 kt METAR LFBC 170500Z AUTO 20013KT 170V230 9999 FEW008/// BKN027/// BKN054/// ///CB 18/17 Q1010
06:30
V
19 °C 10 km+ - 190° 190° 8 kt METAR LFBC 170430Z AUTO 19008KT 9999 //////CB 19/16 Q1009
06:00
V
19 °C 10 km+ - 220° 220° 9 kt METAR LFBC 170400Z AUTO 22009KT 9999 //////CB 19/16 Q1009
05:30
V
20 °C 10 km+ - 220° 220° 9 kt METAR LFBC 170330Z AUTO 22009KT 9999 //////CB 20/17 Q1009
05:00
V
20 °C 10 km+ 14.000 ft 220° 220° 10 kt METAR LFBC 170300Z AUTO 22010KT 200V260 9999 FEW028/// BKN140/// BKN150/// ///CB 20/16 Q1009
04:30
V
20 °C 10 km+ - 230° 230° 10 kt METAR LFBC 170230Z AUTO 23010KT 9999 //////CB 20/16 Q1009
04:00
V
20 °C 10 km+ - 220° 220° 13 kt METAR LFBC 170200Z AUTO 22013KT 9999 //////CB 20/16 Q1009
03:30
V
20 °C 10 km+ - 220° 220° 11 kt METAR LFBC 170130Z AUTO 22011KT 9999 //////CB 20/16 Q1010
03:00
V
20 °C 10 km+ - 230° 230° 10 kt METAR LFBC 170100Z AUTO 23010KT 9999 //////CB 20/15 Q1010
02:30
V
20 °C 10 km+ - 220° 220° 11 kt METAR LFBC 170030Z AUTO 22011KT 9999 ///TCU 20/15 Q1010
02:00
V
20 °C 10 km+ - 230° 230° 8 kt METAR LFBC 170000Z AUTO 23008KT 9999 //////CB 20/15 Q1010
01:30
V
20 °C 10 km+ 8.800 ft 240° 240° 6 kt METAR LFBC 162330Z AUTO 24006KT 9999 FEW027/// BKN088/// ///TCU 20/15 Q1010
01:00
V
19 °C 10 km+ - 260° 260° 5 kt METAR LFBC 162300Z AUTO 26005KT 220V280 9999 FEW035 19/14 Q1010
00:30
V
20 °C 10 km+ - 250° 250° 6 kt METAR LFBC 162230Z AUTO 25006KT 220V280 CAVOK 20/15 Q1010
00:00
V
20 °C 10 km+ - 240° 240° 4 kt METAR LFBC 162200Z AUTO 24004KT CAVOK 20/15 Q1010

16 augustus 2022

Tijd Code Weer Temp. Zicht Plafond Wind METAR/SPECI
23:30
V
20 °C 10 km+ - 260° 260° 4 kt METAR LFBC 162130Z AUTO 26004KT 9999 //////CB 20/15 Q1010 BECMG NSC
23:00
V
20 °C 10 km+ - Var Var 3 kt METAR LFBC 162100Z AUTO VRB03KT CAVOK 20/15 Q1010 NOSIG
22:30
V
20 °C 10 km+ - 270° 270° 4 kt METAR LFBC 162030Z AUTO 27004KT 9999 //////CB 20/16 Q1010 BECMG SCT025 SCT120
22:00
V
21 °C 10 km+ - 270° 270° 5 kt METAR LFBC 162000Z AUTO 27005KT 240V300 CAVOK 21/16 Q1010 NOSIG
21:30
V
21 °C 10 km+ - Var Var 3 kt METAR LFBC 161930Z AUTO VRB03KT CAVOK 21/16 Q1010 NOSIG
21:00
V
21 °C 10 km+ - 290° 290° 7 kt METAR LFBC 161900Z AUTO 29007KT CAVOK 21/16 Q1009 NOSIG
20:30
V
22 °C 10 km+ - 290° 290° 8 kt METAR LFBC 161830Z AUTO 29008KT 260V330 CAVOK 22/17 Q1009 NOSIG
20:00
V
22 °C 10 km+ - 280° 280° 8 kt METAR LFBC 161800Z AUTO 28008KT 240V330 CAVOK 22/16 Q1009 NOSIG
19:30
V
23 °C 10 km+ - 280° 280° 9 kt METAR LFBC 161730Z AUTO 28009KT CAVOK 23/16 Q1009 NOSIG
19:00
V
24 °C 10 km+ - 290° 290° 9 kt METAR LFBC 161700Z AUTO 29009KT CAVOK 24/15 Q1008 NOSIG
18:30
V
24 °C 10 km+ - 330° 330° 6 kt METAR LFBC 161630Z AUTO 33006KT 260V020 CAVOK 24/15 Q1008 NOSIG
18:00
V
25 °C 10 km+ - 330° 330° 8 kt METAR LFBC 161600Z AUTO 33008KT 280V010 CAVOK 25/15 Q1008 NOSIG
17:30
V
24 °C 10 km+ - 300° 300° 10 kt METAR LFBC 161530Z AUTO 30010KT 9999 FEW027 24/16 Q1008 NOSIG
17:00
V
24 °C 10 km+ 12.000 ft 330° 330° 9 kt METAR LFBC 161500Z AUTO 33009KT 290V010 9999 SCT024 BKN120 24/17 Q1008 NOSIG
16:30
V
24 °C 10 km+ - 320° 320° 10 kt METAR LFBC 161430Z AUTO 32010KT 280V360 9999 ////// 24/17 Q1008
16:00
V
25 °C 10 km+ - 290° 290° 10 kt METAR LFBC 161400Z AUTO 29010KT 250V330 9999 ////// 25/17 Q1009
15:30
V
25 °C 10 km+ - 300° 300° 12 kt METAR LFBC 161330Z AUTO 30012KT 260V330 9999 ////// 25/16 Q1008
15:00
V
25 °C 10 km+ - 280° 280° 8 kt METAR LFBC 161300Z AUTO 28008KT 240V320 9999 ////// 25/17 Q1008
14:30
V
25 °C 10 km+ - 300° 300° 6 kt METAR LFBC 161230Z AUTO 30006KT 240V350 9999 ////// 25/17 Q1008
14:00
V
25 °C 10 km+ - 280° 280° 10 kt METAR LFBC 161200Z AUTO 28010KT 240V330 9999 ////// 25/16 Q1008
13:30
V
25 °C 10 km+ - 280° 280° 9 kt METAR LFBC 161130Z AUTO 28009KT 240V340 9999 ////// 25/17 Q1008
13:00
V
25 °C 10 km+ - 280° 280° 7 kt METAR LFBC 161100Z AUTO 28007KT 250V320 9999 ////// 25/15 Q1008
12:30
V
24 °C 10 km+ - 190° 190° 4 kt METAR LFBC 161030Z AUTO 19004KT 140V250 9999 ////// 24/16 Q1008
12:00
V
24 °C 10 km+ - 200° 200° 5 kt METAR LFBC 161000Z AUTO 20005KT 160V240 9999 ////// 24/15 Q1008
11:30
V
24 °C 10 km+ - 210° 210° 4 kt METAR LFBC 160930Z AUTO 21004KT 150V260 9999 ////// 24/15 Q1007
11:00
V
23 °C 10 km+ - Var Var 1 kt METAR LFBC 160900Z AUTO VRB01KT 9999 ////// 23/16 Q1007
10:30
V
22 °C 10 km+ - Var 000° 0 kt METAR LFBC 160830Z AUTO 00000KT 9999 ////// 22/17 Q1007
10:00
V
20 °C 10 km+ - Var 000° 0 kt METAR LFBC 160800Z AUTO 00000KT 9999 ////// 20/18 Q1007
09:30
M
19 °C 6 km - 050° 050° 2 kt METAR LFBC 160730Z AUTO 05002KT 6000 ////// 19/17 Q1007
09:00
I
18 °C 1,6 km - 290° 290° 3 kt METAR LFBC 160700Z AUTO 29003KT 260V320 1600 BR ////// 18/18 Q1007
08:30
L
17 °C 1,2 km - 340° 340° 3 kt METAR LFBC 160630Z AUTO 34003KT 1300 1200 R24/1700D BR ////// 17/16 Q1007
08:00
L
17 °C 1,3 km - 010° 010° 3 kt METAR LFBC 160600Z AUTO 01003KT 2500 1300 R24/1900D BR ////// 17/16 Q1007
07:30
I
16 °C 4 km - 360° 360° 3 kt METAR LFBC 160530Z AUTO 36003KT 4000 BR ////// 16/16 Q1006
07:00
M
16 °C 5 km - Var 000° 0 kt METAR LFBC 160500Z AUTO 00000KT 5000 BR ////// 16/16 Q1006
06:30
M
17 °C 5 km - Var 000° 0 kt METAR LFBC 160430Z AUTO 00000KT 5000 BR ////// 17/16 Q1006
06:00
M
17 °C 5 km - 080° 080° 2 kt METAR LFBC 160400Z AUTO 08002KT 5000 BR ////// 17/16 Q1007
05:30
I
16 °C 4,5 km - Var 000° 0 kt METAR LFBC 160330Z AUTO 00000KT 4500 BR ////// 16/15 Q1007
05:00
M
16 °C 5 km - 110° 110° 1 kt METAR LFBC 160300Z AUTO 11001KT 5000 BR ////// 16/15 Q1007
04:30
M
16 °C 5 km - 090° 090° 4 kt METAR LFBC 160230Z AUTO 09004KT 5000 BR ////// 16/15 Q1007
04:00
M
17 °C 6 km - 030° 030° 2 kt METAR LFBC 160200Z AUTO 03002KT 6000 ////// 17/17 Q1008
03:30
M
16 °C 5 km - Var Var 1 kt METAR LFBC 160130Z AUTO VRB01KT 5000 BR ////// 16/16 Q1008
03:00
M
16 °C 6 km - 080° 080° 3 kt METAR LFBC 160100Z AUTO 08003KT 6000 ////// 16/15 Q1008
02:30
V
17 °C 8 km - Var Var 2 kt METAR LFBC 160030Z AUTO VRB02KT 8000 ////// 17/16 Q1008
02:00
V
17 °C 10 km+ - 310° 310° 2 kt METAR LFBC 160000Z AUTO 31002KT 9999 ////// 17/16 Q1009
01:30
V
16 °C 8 km - 110° 110° 1 kt METAR LFBC 152330Z AUTO 11001KT 8000 ////// 16/15 Q1009
01:00
V
17 °C 10 km+ - Var 000° 0 kt METAR LFBC 152300Z AUTO 00000KT 9999 ////// 17/15 Q1009
00:30
V
18 °C 10 km+ - Var 000° 0 kt METAR LFBC 152230Z AUTO 00000KT 9999 ////// 18/16 Q1009
00:00
V
18 °C 10 km+ - Var 000° 0 kt METAR LFBC 152200Z AUTO 00000KT 9999 ////// 18/16 Q1009

15 augustus 2022

Tijd Code Weer Temp. Zicht Plafond Wind METAR/SPECI
23:30
V
19 °C 10 km+ - Var 000° 0 kt METAR LFBC 152130Z AUTO 00000KT 9999 ////// 19/17 Q1009
23:00
V
18 °C 10 km+ - Var 000° 0 kt METAR LFBC 152100Z AUTO 00000KT 9999 ////// 18/16 Q1009
22:30
V
20 °C 10 km+ - Var 000° 0 kt METAR LFBC 152030Z AUTO 00000KT 9999 ////// 20/17 Q1009
22:00
V
20 °C 10 km+ - Var Var 2 kt METAR LFBC 152000Z AUTO VRB02KT 9999 ////// 20/17 Q1009
21:30
V
21 °C 10 km+ - Var Var 2 kt METAR LFBC 151930Z AUTO VRB02KT 9999 ////// 21/17 Q1009
21:00
V
21 °C 10 km+ - 280° 280° 3 kt METAR LFBC 151900Z AUTO 28003KT 230V300 9999 ////// 21/17 Q1009
20:30
V
22 °C 10 km+ - 290° 290° 5 kt METAR LFBC 151830Z AUTO 29005KT 9999 ////// 22/17 Q1009
20:00
V
23 °C 10 km+ - 260° 260° 8 kt METAR LFBC 151800Z AUTO 26008KT 9999 ////// 23/17 Q1009
19:30
V
23 °C 10 km+ - 260° 260° 8 kt METAR LFBC 151730Z AUTO 26008KT 230V290 9999 ////// 23/17 Q1009
19:00
V
24 °C 10 km+ - 250° 250° 8 kt METAR LFBC 151700Z AUTO 25008KT 220V280 9999 ////// 24/16 Q1009
18:30
V
24 °C 10 km+ - 270° 270° 8 kt METAR LFBC 151630Z AUTO 27008KT 220V310 9999 ////// 24/17 Q1009
18:00
V
24 °C 10 km+ - 280° 280° 9 kt METAR LFBC 151600Z AUTO 28009KT 250V310 9999 ////// 24/17 Q1009
17:30
V
24 °C 10 km+ - 270° 270° 11 kt METAR LFBC 151530Z AUTO 27011KT 9999 ////// 24/17 Q1009
17:00
V
24 °C 10 km+ - 250° 250° 9 kt METAR LFBC 151500Z AUTO 25009KT 210V290 9999 ////// 24/17 Q1009
16:30
V
25 °C 10 km+ - 250° 250° 10 kt METAR LFBC 151430Z AUTO 25010KT 210V290 9999 ////// 25/16 Q1010
16:00
V
25 °C 10 km+ - 240° 240° 12 kt METAR LFBC 151400Z AUTO 24012KT 210V270 9999 ////// 25/16 Q1010
15:30
V
25 °C 10 km+ - 260° 260° 12 kt METAR LFBC 151330Z AUTO 26012KT 230V290 9999 ////// 25/17 Q1010
15:00
V
25 °C 10 km+ - 250° 250° 11 kt METAR LFBC 151300Z AUTO 25011KT 210V290 9999 ////// 25/17 Q1010
14:30
V
26 °C 10 km+ - 250° 250° 9 kt METAR LFBC 151230Z AUTO 25009KT 210V290 9999 ////// 26/15 Q1010
14:00
V
25 °C 10 km+ - 230° 230° 11 kt METAR LFBC 151200Z AUTO 23011KT 9999 ////// 25/17 Q1010
13:30
V
26 °C 10 km+ - 240° 240° 9 kt METAR LFBC 151130Z AUTO 24009KT 200V280 9999 ////// 26/16 Q1010
13:00
V
25 °C 10 km+ - 270° 270° 8 kt METAR LFBC 151100Z AUTO 27008KT 210V320 9999 ////// 25/16 Q1010
12:30
V
24 °C 10 km+ - 260° 260° 7 kt METAR LFBC 151030Z AUTO 26007KT 210V340 9999 ////// 24/16 Q1010
12:00
V
24 °C 10 km+ - 250° 250° 9 kt METAR LFBC 151000Z AUTO 25009KT 9999 ////// 24/16 Q1010
11:30
V
24 °C 10 km+ - 240° 240° 11 kt METAR LFBC 150930Z AUTO 24011KT 9999 ////// 24/16 Q1010
11:00
V
24 °C 10 km+ - 260° 260° 7 kt METAR LFBC 150900Z AUTO 26007KT 210V300 9999 ////// 24/16 Q1010
10:30
V
23 °C 10 km+ - 280° 280° 8 kt METAR LFBC 150830Z AUTO 28008KT 230V320 9999 ////// 23/16 Q1010
10:00
V
22 °C 10 km+ - 260° 260° 7 kt METAR LFBC 150800Z AUTO 26007KT 210V300 9999 ////// 22/17 Q1010
09:30
V
22 °C 10 km+ - 260° 260° 5 kt METAR LFBC 150730Z AUTO 26005KT 220V300 9999 ////// 22/17 Q1010
Oudere gegevens

Met cookies volgen wij en derde partijen jouw internetgedrag binnen onze site. Als je verdergaat gaan we ervan uit dat je dit goedvindt. Meer info